San Haven, North Dakota
Current Conditions -  °F | °C
As of 8:15 PM on Monday 22 Dec 2014 (Local Time) from K06D Reporting Station
Haze Haze  
Wind Chill: 18°   Ceiling: Unl
Heat Index: 30°   Visibility: 2.5mi
Dew Point: 30°   Wind: 17mph
Humidity: 100%   Direction: 20°NNE
Pressure: 29.75"   Gusts: 23mph
Location:  48.8598°N, 100.05°W
Report Text: K06D 230215Z AUTO 02015G20KT 2 1/2SM BR SCT003 M01/M01 A2975 RMK AO2
Loading
Personal Weather Stations






























Interactive Weather Map New forecast layout! Learn more

10-Day Weather Forecast

Advertisements
Track Severe Weather on mobile